SUR4015 SCEL-SCIE
Flight info
| Callsign | SUR4015 |
|---|---|
| Flight time | 0h 59m |
| Altitude | 150 |
| Route | GELU5B GELUS UQ809 ARUNI ARUN1D |
| Aircraft | AT72/M-V/N |
Departure
| Time | 2026-05-04 17:16 |
|---|---|
| Airport | Comodoro Arturo Merino Benítez International Airport (SCEL) |
Arrival
| Time | 2026-05-04 18:15 |
|---|---|
| Airport | Carriel Sur International Airport (SCIE) |
| Time | Latitude | Longitude | Altitude | Speed | Heading |
|---|---|---|---|---|---|
| 2026-05-04 16:55 | -33.40468 | -70.79182 | 1563 ft | 0 kts | 270° |
| 2026-05-04 17:00 | -33.40468 | -70.79183 | 1563 ft | 0 kts | 270° |
| 2026-05-04 17:03 | -33.40468 | -70.79184 | 1563 ft | 0 kts | 270° |
| 2026-05-04 17:04 | -33.40468 | -70.79174 | 1563 ft | 2 kts | 270° |
| 2026-05-04 17:04 | -33.40468 | -70.79127 | 1563 ft | 3 kts | 270° |
| 2026-05-04 17:05 | -33.40468 | -70.79082 | 1563 ft | 0 kts | 270° |
| 2026-05-04 17:05 | -33.40313 | -70.79104 | 1563 ft | 14 kts | 359° |
| 2026-05-04 17:06 | -33.40106 | -70.79106 | 1563 ft | 16 kts | 359° |
| 2026-05-04 17:06 | -33.39991 | -70.79107 | 1563 ft | 17 kts | 359° |
| 2026-05-04 17:07 | -33.39847 | -70.79109 | 1563 ft | 12 kts | 359° |
| 2026-05-04 17:07 | -33.39793 | -70.79109 | 1563 ft | 9 kts | 359° |
| 2026-05-04 17:07 | -33.39768 | -70.79110 | 1563 ft | 0 kts | 359° |
| 2026-05-04 17:08 | -33.39697 | -70.79084 | 1563 ft | 16 kts | 14° |
| 2026-05-04 17:08 | -33.39469 | -70.79042 | 1563 ft | 17 kts | 359° |
| 2026-05-04 17:08 | -33.39351 | -70.79046 | 1563 ft | 17 kts | 359° |
| 2026-05-04 17:09 | -33.39232 | -70.79049 | 1563 ft | 17 kts | 359° |
| 2026-05-04 17:09 | -33.39110 | -70.79053 | 1563 ft | 18 kts | 359° |
| 2026-05-04 17:09 | -33.38987 | -70.79056 | 1563 ft | 18 kts | 359° |
| 2026-05-04 17:10 | -33.38740 | -70.79063 | 1563 ft | 17 kts | 359° |
| 2026-05-04 17:10 | -33.38404 | -70.79073 | 1563 ft | 16 kts | 357° |
| 2026-05-04 17:11 | -33.38320 | -70.79077 | 1563 ft | 11 kts | 7° |
| 2026-05-04 17:11 | -33.38319 | -70.79013 | 1563 ft | 10 kts | 131° |
| 2026-05-04 17:11 | -33.38433 | -70.78857 | 1563 ft | 14 kts | 131° |
| 2026-05-04 17:12 | -33.38479 | -70.78794 | 1563 ft | 15 kts | 131° |
| 2026-05-04 17:12 | -33.38606 | -70.78631 | 1563 ft | 10 kts | 137° |
| 2026-05-04 17:13 | -33.38642 | -70.78615 | 1563 ft | 0 kts | 178° |
| 2026-05-04 17:14 | -33.38643 | -70.78615 | 1563 ft | 0 kts | 178° |
| 2026-05-04 17:14 | -33.39665 | -70.78556 | 1564 ft | 133 kts | 177° |
| 2026-05-04 17:15 | -33.40718 | -70.78494 | 1634 ft | 162 kts | 177° |
| 2026-05-04 17:15 | -33.43209 | -70.78356 | 2102 ft | 198 kts | 177° |
| 2026-05-04 17:16 | -33.46140 | -70.78218 | 2594 ft | 221 kts | 177° |
| 2026-05-04 17:16 | -33.50089 | -70.80644 | 3357 ft | 228 kts | 244° |
| 2026-05-04 17:17 | -33.50631 | -70.82402 | 3604 ft | 229 kts | 253° |
| 2026-05-04 17:17 | -33.51849 | -70.88030 | 4603 ft | 232 kts | 256° |
| 2026-05-04 17:18 | -33.52260 | -70.89899 | 4952 ft | 232 kts | 257° |
| 2026-05-04 17:18 | -33.53114 | -70.93606 | 5712 ft | 231 kts | 256° |
| 2026-05-04 17:19 | -33.55001 | -70.96837 | 6298 ft | 247 kts | 224° |
| 2026-05-04 17:19 | -33.57814 | -70.99327 | 6855 ft | 257 kts | 214° |
| 2026-05-04 17:20 | -33.60928 | -71.01506 | 7537 ft | 258 kts | 210° |
| 2026-05-04 17:20 | -33.64093 | -71.03537 | 8285 ft | 258 kts | 208° |
| 2026-05-04 17:20 | -33.65689 | -71.04533 | 8660 ft | 258 kts | 208° |
| 2026-05-04 17:21 | -33.68880 | -71.06498 | 9314 ft | 262 kts | 208° |
| 2026-05-04 17:21 | -33.72027 | -71.08420 | 9897 ft | 245 kts | 208° |
| 2026-05-04 17:22 | -33.73531 | -71.09337 | 10179 ft | 239 kts | 208° |
| 2026-05-04 17:22 | -33.74993 | -71.10228 | 10421 ft | 236 kts | 208° |
| 2026-05-04 17:23 | -33.79332 | -71.12873 | 11161 ft | 229 kts | 208° |
| 2026-05-04 17:23 | -33.80749 | -71.13737 | 11408 ft | 227 kts | 208° |
| 2026-05-04 17:23 | -33.83529 | -71.15433 | 11899 ft | 224 kts | 208° |
| 2026-05-04 17:24 | -33.84913 | -71.16278 | 12146 ft | 222 kts | 208° |
| 2026-05-04 17:24 | -33.89009 | -71.18780 | 12888 ft | 218 kts | 208° |
| 2026-05-04 17:25 | -33.90355 | -71.19604 | 13135 ft | 216 kts | 208° |
| 2026-05-04 17:25 | -33.93006 | -71.21237 | 13628 ft | 214 kts | 208° |
| 2026-05-04 17:26 | -33.95642 | -71.22867 | 14123 ft | 211 kts | 209° |
| 2026-05-04 17:26 | -33.99513 | -71.25267 | 14860 ft | 207 kts | 208° |
| 2026-05-04 17:27 | -34.02186 | -71.26928 | 14990 ft | 226 kts | 208° |
| 2026-05-04 17:27 | -34.05114 | -71.28749 | 14992 ft | 247 kts | 208° |
| 2026-05-04 17:28 | -34.08266 | -71.30709 | 14988 ft | 263 kts | 208° |
| 2026-05-04 17:29 | -34.13289 | -71.33833 | 14980 ft | 277 kts | 209° |
| 2026-05-04 17:29 | -34.18488 | -71.37071 | 14977 ft | 285 kts | 209° |
| 2026-05-04 17:30 | -34.23838 | -71.40409 | 14975 ft | 292 kts | 209° |
| 2026-05-04 17:31 | -34.27479 | -71.42683 | 14973 ft | 296 kts | 209° |
| 2026-05-04 17:31 | -34.33024 | -71.46151 | 14967 ft | 301 kts | 209° |
| 2026-05-04 17:32 | -34.36742 | -71.48480 | 14966 ft | 303 kts | 209° |
| 2026-05-04 17:33 | -34.42410 | -71.52035 | 14968 ft | 307 kts | 209° |
| 2026-05-04 17:33 | -34.44285 | -71.53212 | 14968 ft | 307 kts | 209° |
| 2026-05-04 17:34 | -34.50016 | -71.56812 | 14962 ft | 310 kts | 210° |
| 2026-05-04 17:34 | -34.51941 | -71.58024 | 14961 ft | 311 kts | 210° |
| 2026-05-04 17:35 | -34.57708 | -71.61655 | 14960 ft | 312 kts | 210° |
| 2026-05-04 17:35 | -34.61543 | -71.64073 | 14960 ft | 312 kts | 210° |
| 2026-05-04 17:35 | -34.63470 | -71.65290 | 14959 ft | 312 kts | 210° |
| 2026-05-04 17:36 | -34.65403 | -71.66510 | 14956 ft | 312 kts | 210° |
| 2026-05-04 17:36 | -34.67330 | -71.67727 | 14955 ft | 312 kts | 210° |
| 2026-05-04 17:36 | -34.69260 | -71.68947 | 14955 ft | 312 kts | 210° |
| 2026-05-04 17:36 | -34.71160 | -71.70148 | 14955 ft | 312 kts | 210° |
| 2026-05-04 17:37 | -34.73087 | -71.71368 | 14956 ft | 312 kts | 210° |
| 2026-05-04 17:37 | -34.75010 | -71.72586 | 14957 ft | 312 kts | 210° |
| 2026-05-04 17:37 | -34.76938 | -71.73808 | 14959 ft | 312 kts | 210° |
| 2026-05-04 17:37 | -34.78867 | -71.75030 | 14960 ft | 312 kts | 210° |
| 2026-05-04 17:38 | -34.80791 | -71.76251 | 14960 ft | 312 kts | 210° |
| 2026-05-04 17:38 | -34.82721 | -71.77475 | 14958 ft | 312 kts | 210° |
| 2026-05-04 17:38 | -34.84650 | -71.78699 | 14957 ft | 312 kts | 210° |
| 2026-05-04 17:38 | -34.86553 | -71.79908 | 14957 ft | 312 kts | 210° |
| 2026-05-04 17:39 | -34.90408 | -71.82359 | 14957 ft | 312 kts | 210° |
| 2026-05-04 17:39 | -34.92336 | -71.83585 | 14957 ft | 312 kts | 210° |
| 2026-05-04 17:39 | -34.94261 | -71.84810 | 14957 ft | 312 kts | 210° |
| 2026-05-04 17:40 | -34.96190 | -71.86039 | 14957 ft | 312 kts | 210° |
| 2026-05-04 17:40 | -34.98094 | -71.87252 | 14958 ft | 312 kts | 210° |
| 2026-05-04 17:40 | -35.00021 | -71.88481 | 14958 ft | 312 kts | 210° |
| 2026-05-04 17:40 | -35.01957 | -71.89715 | 14959 ft | 312 kts | 210° |
| 2026-05-04 17:41 | -35.03886 | -71.90947 | 14959 ft | 312 kts | 210° |
| 2026-05-04 17:41 | -35.05818 | -71.92180 | 14959 ft | 313 kts | 210° |
| 2026-05-04 17:41 | -35.07721 | -71.93396 | 14960 ft | 313 kts | 210° |
| 2026-05-04 17:41 | -35.09648 | -71.94628 | 14963 ft | 313 kts | 210° |
| 2026-05-04 17:42 | -35.11581 | -71.95864 | 14966 ft | 313 kts | 210° |
| 2026-05-04 17:42 | -35.13520 | -71.97105 | 14970 ft | 314 kts | 210° |
| 2026-05-04 17:42 | -35.15460 | -71.98348 | 14972 ft | 315 kts | 210° |
| 2026-05-04 17:42 | -35.17400 | -71.99591 | 14973 ft | 315 kts | 210° |
| 2026-05-04 17:43 | -35.19325 | -72.00825 | 14975 ft | 316 kts | 210° |
| 2026-05-04 17:43 | -35.21272 | -72.02074 | 14976 ft | 316 kts | 210° |
| 2026-05-04 17:43 | -35.23225 | -72.03327 | 14977 ft | 316 kts | 210° |
| 2026-05-04 17:43 | -35.25179 | -72.04582 | 14978 ft | 317 kts | 210° |
| 2026-05-04 17:44 | -35.27138 | -72.05840 | 14978 ft | 317 kts | 210° |
| 2026-05-04 17:44 | -35.29093 | -72.07096 | 14979 ft | 318 kts | 210° |
| 2026-05-04 17:44 | -35.31050 | -72.08355 | 14981 ft | 318 kts | 210° |
| 2026-05-04 17:44 | -35.33004 | -72.09612 | 14982 ft | 318 kts | 210° |
| 2026-05-04 17:45 | -35.34949 | -72.10865 | 14985 ft | 319 kts | 209° |
| 2026-05-04 17:45 | -35.36914 | -72.12131 | 14987 ft | 319 kts | 208° |
| 2026-05-04 17:45 | -35.38885 | -72.13402 | 14988 ft | 320 kts | 208° |
| 2026-05-04 17:45 | -35.40861 | -72.14677 | 14988 ft | 320 kts | 208° |
| 2026-05-04 17:46 | -35.42837 | -72.15951 | 14989 ft | 321 kts | 208° |
| 2026-05-04 17:46 | -35.44791 | -72.17213 | 14991 ft | 321 kts | 208° |
| 2026-05-04 17:46 | -35.46778 | -72.18496 | 14992 ft | 322 kts | 208° |
| 2026-05-04 17:46 | -35.48760 | -72.19776 | 14994 ft | 322 kts | 208° |
| 2026-05-04 17:47 | -35.50745 | -72.21060 | 14995 ft | 322 kts | 208° |
| 2026-05-04 17:47 | -35.52734 | -72.22348 | 14999 ft | 323 kts | 208° |
| 2026-05-04 17:47 | -35.54726 | -72.23637 | 15001 ft | 323 kts | 207° |
| 2026-05-04 17:47 | -35.56694 | -72.24912 | 15002 ft | 324 kts | 207° |
| 2026-05-04 17:48 | -35.58690 | -72.26206 | 15003 ft | 324 kts | 207° |
| 2026-05-04 17:48 | -35.60692 | -72.27503 | 15004 ft | 324 kts | 207° |
| 2026-05-04 17:48 | -35.62693 | -72.28801 | 15005 ft | 325 kts | 207° |
| 2026-05-04 17:48 | -35.64670 | -72.30084 | 15005 ft | 325 kts | 207° |
| 2026-05-04 17:49 | -35.66670 | -72.31384 | 15007 ft | 325 kts | 207° |
| 2026-05-04 17:49 | -35.68674 | -72.32687 | 15009 ft | 325 kts | 206° |
| 2026-05-04 17:49 | -35.70682 | -72.33994 | 15013 ft | 325 kts | 206° |
| 2026-05-04 17:49 | -35.72688 | -72.35305 | 14876 ft | 327 kts | 206° |
| 2026-05-04 17:50 | -35.74719 | -72.36634 | 14628 ft | 331 kts | 207° |
| 2026-05-04 17:50 | -35.76729 | -72.37951 | 14382 ft | 333 kts | 207° |
| 2026-05-04 17:50 | -35.78787 | -72.39302 | 14132 ft | 335 kts | 207° |
| 2026-05-04 17:50 | -35.80815 | -72.40734 | 13876 ft | 337 kts | 216° |
| 2026-05-04 17:51 | -35.82543 | -72.42656 | 13636 ft | 338 kts | 223° |
| 2026-05-04 17:51 | -35.84447 | -72.44354 | 13388 ft | 339 kts | 211° |
| 2026-05-04 17:51 | -35.86522 | -72.45741 | 13140 ft | 339 kts | 205° |
| 2026-05-04 17:51 | -35.88659 | -72.46992 | 12889 ft | 339 kts | 203° |
| 2026-05-04 17:52 | -35.90808 | -72.48195 | 12639 ft | 339 kts | 203° |
| 2026-05-04 17:52 | -35.92958 | -72.49398 | 12389 ft | 339 kts | 203° |
| 2026-05-04 17:52 | -35.95098 | -72.50618 | 12139 ft | 339 kts | 204° |
| 2026-05-04 17:52 | -35.97211 | -72.51851 | 11891 ft | 339 kts | 204° |
| 2026-05-04 17:53 | -35.99331 | -72.53118 | 11641 ft | 338 kts | 203° |
| 2026-05-04 17:53 | -36.01440 | -72.54406 | 11391 ft | 337 kts | 204° |
| 2026-05-04 17:53 | -36.03524 | -72.55700 | 11139 ft | 332 kts | 204° |
| 2026-05-04 17:53 | -36.05576 | -72.56993 | 10887 ft | 328 kts | 204° |
| 2026-05-04 17:54 | -36.07597 | -72.58278 | 10635 ft | 324 kts | 204° |
| 2026-05-04 17:54 | -36.09569 | -72.59542 | 10387 ft | 321 kts | 205° |
| 2026-05-04 17:54 | -36.11543 | -72.60815 | 10136 ft | 318 kts | 205° |
| 2026-05-04 17:54 | -36.13486 | -72.62110 | 9885 ft | 316 kts | 206° |
| 2026-05-04 17:55 | -36.15421 | -72.63393 | 9634 ft | 313 kts | 205° |
| 2026-05-04 17:55 | -36.17339 | -72.64647 | 9383 ft | 311 kts | 205° |
| 2026-05-04 17:55 | -36.19250 | -72.65890 | 9132 ft | 309 kts | 206° |
| 2026-05-04 17:55 | -36.21123 | -72.67110 | 8884 ft | 307 kts | 206° |
| 2026-05-04 17:56 | -36.23012 | -72.68344 | 8633 ft | 305 kts | 205° |
| 2026-05-04 17:56 | -36.24882 | -72.69567 | 8382 ft | 303 kts | 205° |
| 2026-05-04 17:56 | -36.26731 | -72.70781 | 8132 ft | 300 kts | 205° |
| 2026-05-04 17:56 | -36.28578 | -72.71995 | 7881 ft | 298 kts | 205° |
| 2026-05-04 17:57 | -36.30408 | -72.73199 | 7631 ft | 297 kts | 205° |
| 2026-05-04 17:57 | -36.32227 | -72.74398 | 7380 ft | 295 kts | 205° |
| 2026-05-04 17:57 | -36.33422 | -72.75188 | 7213 ft | 293 kts | 205° |
| 2026-05-04 17:57 | -36.35205 | -72.76387 | 7105 ft | 286 kts | 208° |
| 2026-05-04 17:58 | -36.37422 | -72.78056 | 7058 ft | 277 kts | 206° |
| 2026-05-04 17:58 | -36.39291 | -72.78419 | 7021 ft | 272 kts | 173° |
| 2026-05-04 17:58 | -36.41050 | -72.77704 | 7026 ft | 263 kts | 155° |
| 2026-05-04 17:58 | -36.42808 | -72.77114 | 7016 ft | 260 kts | 169° |
| 2026-05-04 17:59 | -36.43995 | -72.76934 | 7014 ft | 258 kts | 174° |
| 2026-05-04 17:59 | -36.45781 | -72.76797 | 7012 ft | 255 kts | 178° |
| 2026-05-04 17:59 | -36.49300 | -72.76741 | 7011 ft | 251 kts | 182° |
| 2026-05-04 18:00 | -36.51045 | -72.76781 | 7014 ft | 248 kts | 185° |
| 2026-05-04 18:00 | -36.52745 | -72.76860 | 7013 ft | 247 kts | 187° |
| 2026-05-04 18:00 | -36.54454 | -72.76984 | 7014 ft | 244 kts | 189° |
| 2026-05-04 18:00 | -36.56136 | -72.77175 | 7014 ft | 241 kts | 192° |
| 2026-05-04 18:01 | -36.57799 | -72.77394 | 7013 ft | 239 kts | 192° |
| 2026-05-04 18:01 | -36.59440 | -72.77660 | 7008 ft | 234 kts | 200° |
| 2026-05-04 18:01 | -36.60941 | -72.78336 | 7015 ft | 226 kts | 213° |
| 2026-05-04 18:02 | -36.63656 | -72.80173 | 7014 ft | 220 kts | 219° |
| 2026-05-04 18:02 | -36.64972 | -72.81132 | 7012 ft | 218 kts | 219° |
| 2026-05-04 18:02 | -36.66287 | -72.82086 | 7013 ft | 217 kts | 219° |
| 2026-05-04 18:02 | -36.67577 | -72.83014 | 7012 ft | 217 kts | 219° |
| 2026-05-04 18:03 | -36.68885 | -72.83948 | 7012 ft | 216 kts | 218° |
| 2026-05-04 18:03 | -36.70189 | -72.84874 | 7014 ft | 215 kts | 218° |
| 2026-05-04 18:03 | -36.71490 | -72.85794 | 7014 ft | 214 kts | 218° |
| 2026-05-04 18:03 | -36.72789 | -72.86710 | 7014 ft | 214 kts | 218° |
| 2026-05-04 18:04 | -36.74085 | -72.87625 | 7011 ft | 214 kts | 218° |
| 2026-05-04 18:04 | -36.75363 | -72.88526 | 7012 ft | 214 kts | 218° |
| 2026-05-04 18:04 | -36.77991 | -72.90387 | 6735 ft | 224 kts | 218° |
| 2026-05-04 18:05 | -36.79370 | -72.91361 | 6514 ft | 231 kts | 218° |
| 2026-05-04 18:05 | -36.80790 | -72.92348 | 6284 ft | 237 kts | 217° |
| 2026-05-04 18:05 | -36.82252 | -72.93358 | 6064 ft | 243 kts | 217° |
| 2026-05-04 18:05 | -36.83748 | -72.94385 | 5841 ft | 247 kts | 216° |
| 2026-05-04 18:06 | -36.86788 | -72.96463 | 5392 ft | 250 kts | 216° |
| 2026-05-04 18:06 | -36.88297 | -72.97494 | 5171 ft | 250 kts | 215° |
| 2026-05-04 18:06 | -36.89822 | -72.98537 | 4946 ft | 250 kts | 215° |
| 2026-05-04 18:07 | -36.91349 | -72.99583 | 4720 ft | 250 kts | 214° |
| 2026-05-04 18:07 | -36.92876 | -73.00631 | 4494 ft | 250 kts | 213° |
| 2026-05-04 18:07 | -36.94402 | -73.01679 | 4268 ft | 250 kts | 213° |
| 2026-05-04 18:07 | -36.95924 | -73.02724 | 4100 ft | 247 kts | 212° |
| 2026-05-04 18:08 | -36.97405 | -73.03738 | 4075 ft | 239 kts | 213° |
| 2026-05-04 18:08 | -36.98835 | -73.04718 | 4036 ft | 234 kts | 213° |
| 2026-05-04 18:08 | -37.00247 | -73.05690 | 4017 ft | 229 kts | 213° |
| 2026-05-04 18:08 | -37.01443 | -73.06915 | 4001 ft | 217 kts | 240° |
| 2026-05-04 18:09 | -37.01227 | -73.10363 | 3605 ft | 221 kts | 306° |
| 2026-05-04 18:09 | -36.98794 | -73.12794 | 3169 ft | 227 kts | 330° |
| 2026-05-04 18:10 | -36.97415 | -73.13757 | 2943 ft | 226 kts | 336° |
| 2026-05-04 18:10 | -36.95985 | -73.14567 | 2789 ft | 222 kts | 339° |
| 2026-05-04 18:10 | -36.94531 | -73.15103 | 2762 ft | 214 kts | 349° |
| 2026-05-04 18:10 | -36.93066 | -73.15180 | 2722 ft | 208 kts | 4° |
| 2026-05-04 18:11 | -36.91668 | -73.14793 | 2716 ft | 204 kts | 17° |
| 2026-05-04 18:11 | -36.90376 | -73.14114 | 2713 ft | 199 kts | 23° |
| 2026-05-04 18:11 | -36.89156 | -73.13363 | 2711 ft | 196 kts | 25° |
| 2026-05-04 18:11 | -36.87948 | -73.12602 | 2710 ft | 192 kts | 24° |
| 2026-05-04 18:12 | -36.86751 | -73.11869 | 2624 ft | 194 kts | 24° |
| 2026-05-04 18:12 | -36.85470 | -73.11114 | 2278 ft | 200 kts | 23° |
| 2026-05-04 18:12 | -36.84299 | -73.10426 | 2365 ft | 169 kts | 23° |
| 2026-05-04 18:12 | -36.83305 | -73.09842 | 2281 ft | 151 kts | 23° |
| 2026-05-04 18:13 | -36.82344 | -73.09332 | 2000 ft | 148 kts | 21° |
| 2026-05-04 18:13 | -36.81371 | -73.08819 | 1361 ft | 160 kts | 24° |
| 2026-05-04 18:13 | -36.79375 | -73.07560 | 356 ft | 155 kts | 25° |
| 2026-05-04 18:14 | -36.78432 | -73.07009 | 96 ft | 144 kts | 25° |
| 2026-05-04 18:14 | -36.77571 | -73.06512 | 36 ft | 130 kts | 25° |
| 2026-05-04 18:14 | -36.76860 | -73.06087 | 35 ft | 83 kts | 25° |
| 2026-05-04 18:15 | -36.76374 | -73.05771 | 34 ft | 14 kts | 36° |
| 2026-05-04 18:15 | -36.76329 | -73.05674 | 34 ft | 2 kts | 127° |
| 2026-05-04 18:15 | -36.76335 | -73.05668 | 34 ft | 0 kts | 159° |
| 2026-05-04 18:16 | -36.76361 | -73.05619 | 34 ft | 9 kts | 155° |
| 2026-05-04 18:16 | -36.76430 | -73.05589 | 34 ft | 13 kts | 206° |
| 2026-05-04 18:16 | -36.76523 | -73.05648 | 34 ft | 17 kts | 205° |
| 2026-05-04 18:17 | -36.76766 | -73.05787 | 34 ft | 12 kts | 205° |
| 2026-05-04 18:17 | -36.76850 | -73.05834 | 34 ft | 8 kts | 204° |
| 2026-05-04 18:17 | -36.76887 | -73.05824 | 34 ft | 0 kts | 112° |